createdAt,value
2024-01-05T00:01:23.657Z,5.50
2024-01-05T00:03:51.753Z,4.65
2024-01-05T00:06:19.704Z,5.68
2024-01-05T00:08:48.453Z,5.65
2024-01-05T00:11:20.662Z,5.32
2024-01-05T00:13:50.281Z,5.53
2024-01-05T00:16:23.656Z,5.68
2024-01-05T00:18:53.731Z,4.93
2024-01-05T00:21:23.432Z,6.10
2024-01-05T00:23:52.956Z,5.72
2024-01-05T00:26:20.851Z,5.82
2024-01-05T00:28:52.014Z,5.13
2024-01-05T00:31:20.370Z,5.65
2024-01-05T00:33:48.891Z,6.07
2024-01-05T00:36:17.127Z,5.82
2024-01-05T00:38:49.320Z,5.40
2024-01-05T00:41:17.719Z,6.05
2024-01-05T00:43:46.092Z,5.53
2024-01-05T00:46:16.120Z,5.82
2024-01-05T00:48:44.054Z,5.90
2024-01-05T00:51:12.280Z,5.60
2024-01-05T00:53:40.832Z,6.88
2024-01-05T00:56:10.076Z,7.20
2024-01-05T00:58:38.057Z,6.53
2024-01-05T01:01:10.560Z,5.85
2024-01-05T01:03:39.024Z,6.85
2024-01-05T01:06:07.047Z,5.93
2024-01-05T01:08:35.498Z,6.00
2024-01-05T01:11:05.120Z,5.72
2024-01-05T01:13:32.809Z,5.60
2024-01-05T01:16:01.344Z,5.82
2024-01-05T01:18:29.465Z,6.53
2024-01-05T01:20:57.501Z,6.30
2024-01-05T01:23:25.417Z,6.30
2024-01-05T01:25:53.369Z,5.72
2024-01-05T01:28:21.380Z,5.90
2024-01-05T01:30:49.637Z,6.60
2024-01-05T01:33:17.882Z,6.30
2024-01-05T01:35:46.517Z,5.80
2024-01-05T01:38:15.866Z,5.90
2024-01-05T01:40:48.522Z,6.25
2024-01-05T01:43:26.057Z,6.05
2024-01-05T01:45:57.352Z,5.95
2024-01-05T01:48:26.739Z,6.47
2024-01-05T01:50:58.043Z,5.85
2024-01-05T01:53:28.247Z,5.88
2024-01-05T01:55:57.907Z,6.43
2024-01-05T01:58:27.072Z,5.35
2024-01-05T02:00:55.020Z,5.43
2024-01-05T02:03:24.014Z,4.72
2024-01-05T02:05:51.935Z,5.00
2024-01-05T02:08:20.610Z,5.53
2024-01-05T02:10:48.954Z,4.30
2024-01-05T02:13:17.259Z,5.25
2024-01-05T02:15:45.291Z,6.03
2024-01-05T02:18:32.911Z,5.15
2024-01-05T02:23:32.686Z,4.35
2024-01-05T02:26:04.501Z,4.85
2024-01-05T02:28:32.585Z,5.32
2024-01-05T02:31:00.703Z,4.30
2024-01-05T02:33:29.585Z,4.70
2024-01-05T02:35:57.680Z,4.75
2024-01-05T02:38:26.421Z,4.00
2024-01-05T02:40:57.297Z,4.50
2024-01-05T02:43:24.985Z,4.82
2024-01-05T02:45:52.985Z,4.65
2024-01-05T02:48:20.718Z,5.60
2024-01-05T02:53:16.984Z,4.93
2024-01-05T02:55:44.894Z,4.38
2024-01-05T02:58:12.905Z,5.28
2024-01-05T03:00:40.850Z,5.30
2024-01-05T03:03:08.878Z,6.10
2024-01-05T03:05:37.086Z,4.93
2024-01-05T03:08:05.306Z,6.47
2024-01-05T03:10:33.391Z,6.72
2024-01-05T03:13:01.173Z,6.45
2024-01-05T03:15:30.184Z,6.30
2024-01-05T03:17:58.360Z,5.60
2024-01-05T03:20:26.200Z,5.97
2024-01-05T03:25:21.662Z,5.38
2024-01-05T03:27:54.514Z,5.05
2024-01-05T03:30:22.856Z,5.60
2024-01-05T03:32:51.120Z,5.03
2024-01-05T03:35:19.471Z,5.20
2024-01-05T03:37:49.573Z,5.38
2024-01-05T03:40:17.511Z,5.38
2024-01-05T03:42:46.006Z,5.07
2024-01-05T03:45:14.078Z,4.38
2024-01-05T03:47:42.382Z,5.18
2024-01-05T03:50:11.113Z,4.90
2024-01-05T03:52:38.971Z,3.97
2024-01-05T03:55:08.323Z,5.60
2024-01-05T03:57:37.030Z,5.13
2024-01-05T04:00:09.249Z,4.30
2024-01-05T04:02:36.914Z,5.25
2024-01-05T04:05:05.706Z,5.03
2024-01-05T04:07:33.729Z,5.25
2024-01-05T04:10:02.196Z,5.03
2024-01-05T04:12:32.158Z,5.55
2024-01-05T04:15:01.812Z,4.97
2024-01-05T04:17:33.241Z,4.68
2024-01-05T04:20:01.152Z,5.10
2024-01-05T04:22:32.642Z,4.78
2024-01-05T04:25:01.984Z,4.93
2024-01-05T04:27:33.407Z,5.90
2024-01-05T04:30:01.701Z,5.70
2024-01-05T04:32:34.778Z,4.63
2024-01-05T04:35:02.638Z,5.40
2024-01-05T04:37:36.935Z,5.70
2024-01-05T04:40:08.044Z,4.82
2024-01-05T04:42:35.702Z,5.57
2024-01-05T04:45:04.557Z,5.28
2024-01-05T04:47:48.069Z,5.65
2024-01-05T04:50:15.994Z,4.82
2024-01-05T04:52:43.467Z,5.20
2024-01-05T04:55:11.340Z,5.25
2024-01-05T04:57:41.059Z,5.50
2024-01-05T05:00:12.338Z,5.10
2024-01-05T05:02:40.181Z,5.10
2024-01-05T05:05:08.827Z,4.20
2024-01-05T05:07:36.509Z,5.00
2024-01-05T05:10:05.668Z,4.70
2024-01-05T05:12:35.126Z,4.53
2024-01-05T05:15:03.290Z,4.85
2024-01-05T05:17:36.491Z,4.72
2024-01-05T05:20:05.741Z,4.50
2024-01-05T05:22:35.549Z,4.13
2024-01-05T05:25:07.179Z,4.22
2024-01-05T05:27:36.449Z,4.20
2024-01-05T05:30:09.378Z,4.38
2024-01-05T05:32:38.846Z,4.32
2024-01-05T05:35:07.384Z,4.75
2024-01-05T05:37:35.495Z,5.15
2024-01-05T05:40:04.864Z,4.05
2024-01-05T05:42:33.755Z,4.40
2024-01-05T05:45:01.433Z,3.85
2024-01-05T05:47:38.453Z,4.35
2024-01-05T05:50:07.747Z,4.40
2024-01-05T05:52:36.621Z,4.30
2024-01-05T05:55:06.893Z,5.03
2024-01-05T05:57:35.227Z,4.75
2024-01-05T06:02:32.815Z,4.82
2024-01-05T06:05:00.483Z,4.97
2024-01-05T06:07:28.309Z,5.45
2024-01-05T06:09:56.236Z,5.00
2024-01-05T06:12:24.342Z,6.20
2024-01-05T06:14:52.712Z,5.50
2024-01-05T06:17:20.968Z,4.45
2024-01-05T06:19:49.117Z,5.95
2024-01-05T06:22:18.283Z,4.90
2024-01-05T06:24:47.736Z,5.07
2024-01-05T06:27:21.993Z,4.35
2024-01-05T06:29:53.663Z,4.22
2024-01-05T06:32:21.388Z,5.18
2024-01-05T06:37:17.539Z,4.90
2024-01-05T06:39:45.644Z,4.30
2024-01-05T06:42:13.810Z,4.32
2024-01-05T06:44:42.701Z,4.97
2024-01-05T06:47:12.580Z,3.92
2024-01-05T06:49:40.552Z,4.47
2024-01-05T06:52:10.527Z,4.38
2024-01-05T06:54:39.215Z,4.35
2024-01-05T06:57:08.789Z,4.78
2024-01-05T06:59:39.228Z,4.38
2024-01-05T07:02:07.509Z,4.88
2024-01-05T07:04:35.532Z,4.60
2024-01-05T07:07:04.090Z,4.82
2024-01-05T07:09:37.283Z,4.60
2024-01-05T07:12:08.038Z,5.38
2024-01-05T07:14:36.896Z,5.03
2024-01-05T07:17:05.734Z,5.47
2024-01-05T07:19:33.947Z,5.47
2024-01-05T07:22:01.960Z,5.65
2024-01-05T07:24:31.010Z,6.05
2024-01-05T07:26:58.839Z,5.88
2024-01-05T07:29:36.429Z,5.82
2024-01-05T07:32:06.730Z,5.05
2024-01-05T07:34:35.829Z,4.85
2024-01-05T07:37:05.144Z,5.07
2024-01-05T07:39:37.994Z,5.55
2024-01-05T07:42:06.904Z,7.57
2024-01-05T07:44:35.143Z,5.68
2024-01-05T07:47:03.541Z,5.40
2024-01-05T07:49:32.492Z,5.75
2024-01-05T07:52:00.794Z,5.65
2024-01-05T07:54:29.078Z,5.30
2024-01-05T07:56:57.925Z,4.78
2024-01-05T07:59:26.180Z,5.20
2024-01-05T08:01:54.389Z,5.70
2024-01-05T08:04:22.653Z,4.75
2024-01-05T08:06:51.900Z,4.90
2024-01-05T08:09:19.609Z,5.35
2024-01-05T08:11:47.396Z,6.07
2024-01-05T08:14:15.313Z,5.47
2024-01-05T08:16:43.830Z,5.22
2024-01-05T08:19:11.846Z,4.70
2024-01-05T08:21:40.270Z,5.28
2024-01-05T08:24:08.825Z,5.72
2024-01-05T08:26:39.061Z,5.03
2024-01-05T08:29:07.598Z,5.25
2024-01-05T08:31:35.628Z,4.93
2024-01-05T08:34:04.318Z,5.50
2024-01-05T08:36:32.299Z,5.20
2024-01-05T08:39:00.871Z,5.45
2024-01-05T08:41:28.997Z,5.50
2024-01-05T08:43:57.494Z,4.82
2024-01-05T08:46:28.506Z,4.30
2024-01-05T08:48:56.694Z,4.95
2024-01-05T08:51:24.976Z,4.60
2024-01-05T08:53:53.106Z,5.68
2024-01-05T08:56:21.851Z,3.83
2024-01-05T08:58:50.031Z,5.10
2024-01-05T09:01:18.111Z,4.70
2024-01-05T09:03:46.226Z,4.35
2024-01-05T09:06:16.286Z,4.53
2024-01-05T09:08:44.257Z,4.25
2024-01-05T09:11:13.416Z,4.82
2024-01-05T09:13:41.568Z,4.10
2024-01-05T09:16:09.558Z,4.78
2024-01-05T09:18:39.751Z,4.60
2024-01-05T09:21:12.036Z,4.00
2024-01-05T09:23:42.394Z,4.45
2024-01-05T09:26:18.144Z,4.63
2024-01-05T09:28:45.926Z,4.88
2024-01-05T09:33:45.005Z,4.88
2024-01-05T09:36:15.967Z,5.25
2024-01-05T09:39:05.032Z,4.63
2024-01-05T09:41:54.605Z,5.23
2024-01-05T09:44:43.775Z,5.57
2024-01-05T09:47:32.272Z,5.55
2024-01-05T09:50:21.355Z,5.10
2024-01-05T09:53:13.295Z,5.32
2024-01-05T09:56:04.178Z,5.97
2024-01-05T09:58:53.951Z,4.63
2024-01-05T10:01:43.445Z,5.30
2024-01-05T10:04:32.026Z,4.28
2024-01-05T10:07:19.807Z,5.35
2024-01-05T10:10:12.362Z,4.82
2024-01-05T10:13:08.192Z,4.97
2024-01-05T10:15:58.232Z,5.40
2024-01-05T10:18:46.985Z,5.60
2024-01-05T10:21:34.551Z,5.40
2024-01-05T10:24:30.864Z,5.55
2024-01-05T10:27:19.244Z,5.45
2024-01-05T10:30:08.201Z,6.30
2024-01-05T10:33:09.656Z,7.75
2024-01-05T10:36:08.002Z,5.22
2024-01-05T10:38:55.715Z,6.20
2024-01-05T10:41:45.967Z,5.63
2024-01-05T10:44:36.640Z,5.32
2024-01-05T10:47:27.533Z,5.18
2024-01-05T10:50:15.479Z,5.32
2024-01-05T10:53:08.857Z,5.22
2024-01-05T10:56:00.043Z,5.85
2024-01-05T10:58:51.678Z,6.10
2024-01-05T11:01:40.178Z,4.93
2024-01-05T11:04:30.414Z,5.60
2024-01-05T11:07:20.484Z,5.38
2024-01-05T11:10:42.614Z,5.55
2024-01-05T11:13:59.887Z,5.32
2024-01-05T11:17:33.897Z,5.72
2024-01-05T11:20:41.053Z,5.30
2024-01-05T11:23:30.433Z,5.70
2024-01-05T11:26:38.187Z,5.50
2024-01-05T11:29:55.512Z,5.57
2024-01-05T11:32:48.443Z,5.40
2024-01-05T11:35:44.951Z,5.45
2024-01-05T11:38:32.974Z,5.25
2024-01-05T11:41:21.571Z,5.22
2024-01-05T11:44:36.463Z,5.57
2024-01-05T11:47:47.356Z,5.82
2024-01-05T11:50:38.746Z,6.10
2024-01-05T11:53:29.574Z,6.50
2024-01-05T11:56:22.262Z,6.05
2024-01-05T11:59:15.052Z,5.00
2024-01-05T12:02:02.841Z,5.88
2024-01-05T12:04:51.599Z,5.15
2024-01-05T12:07:40.649Z,6.40
2024-01-05T12:10:30.824Z,5.72
2024-01-05T12:13:28.875Z,6.18
2024-01-05T12:16:17.464Z,6.05
2024-01-05T12:19:06.405Z,6.63
2024-01-05T12:21:54.417Z,6.00
2024-01-05T12:24:42.375Z,7.07
2024-01-05T12:27:39.126Z,6.68
2024-01-05T12:30:27.015Z,5.70
2024-01-05T12:33:15.709Z,5.80
2024-01-05T12:36:09.404Z,5.70
2024-01-05T12:39:13.793Z,5.78
2024-01-05T12:42:02.698Z,6.93
2024-01-05T12:44:50.539Z,6.90
2024-01-05T12:47:39.681Z,7.15
2024-01-05T12:53:22.032Z,6.40
2024-01-05T12:56:20.836Z,9.18
2024-01-05T12:59:10.376Z,9.38
2024-01-05T13:02:02.563Z,9.90
2024-01-05T13:04:50.869Z,12.70
2024-01-05T13:07:39.661Z,10.90
2024-01-05T13:10:28.404Z,10.50
2024-01-05T13:13:16.557Z,10.90
2024-01-05T13:16:06.373Z,9.82
2024-01-05T13:18:54.688Z,9.85
2024-01-05T13:21:42.623Z,8.40
2024-01-05T13:24:30.894Z,9.20
2024-01-05T13:27:18.497Z,7.50
2024-01-05T13:30:14.991Z,8.43
2024-01-05T13:33:03.110Z,9.48
2024-01-05T13:35:51.104Z,9.55
2024-01-05T13:38:40.360Z,10.60
2024-01-05T13:41:28.260Z,9.20
2024-01-05T13:44:15.932Z,7.43
2024-01-05T13:47:04.353Z,10.35
2024-01-05T13:49:53.006Z,11.45
2024-01-05T13:52:40.749Z,9.48
2024-01-05T13:55:28.801Z,8.73
2024-01-05T13:58:17.118Z,8.50
2024-01-05T14:01:06.110Z,8.10
2024-01-05T14:03:53.828Z,7.10
2024-01-05T14:06:41.713Z,6.57
2024-01-05T14:09:29.854Z,6.82
2024-01-05T14:12:17.608Z,8.27
2024-01-05T14:15:07.460Z,9.02
2024-01-05T14:17:55.920Z,8.10
2024-01-05T14:20:45.080Z,9.07
2024-01-05T14:23:35.443Z,9.05
2024-01-05T14:26:27.662Z,9.10
2024-01-05T14:29:19.867Z,8.73
2024-01-05T14:32:07.698Z,7.78
2024-01-05T14:34:56.188Z,8.18
2024-01-05T14:37:45.883Z,8.30
2024-01-05T14:40:33.627Z,8.07
2024-01-05T14:43:22.349Z,9.15
2024-01-05T14:46:15.817Z,8.85
2024-01-05T14:49:05.393Z,8.98
2024-01-05T14:51:57.036Z,8.50
2024-01-05T14:54:45.426Z,8.63
2024-01-05T14:57:35.237Z,10.25
2024-01-05T15:00:23.409Z,11.73
2024-01-05T15:03:12.262Z,10.67
2024-01-05T15:06:00.641Z,10.32
2024-01-05T15:08:48.265Z,10.27
2024-01-05T15:11:36.849Z,11.18
2024-01-05T15:14:24.483Z,13.50
2024-01-05T15:17:12.099Z,11.63
2024-01-05T15:19:59.925Z,10.20
2024-01-05T15:22:47.829Z,9.27
2024-01-05T15:25:35.589Z,10.55
2024-01-05T15:28:23.405Z,10.63
2024-01-05T15:31:21.420Z,10.32
2024-01-05T15:34:09.505Z,11.73
2024-01-05T15:36:57.851Z,12.18
2024-01-05T15:39:45.832Z,10.17
2024-01-05T15:42:34.431Z,9.50
2024-01-05T15:45:23.912Z,10.20
2024-01-05T15:48:19.943Z,9.48
2024-01-05T15:51:20.828Z,10.10
2024-01-05T15:54:09.938Z,11.07
2024-01-05T15:56:57.677Z,10.20
2024-01-05T15:59:48.525Z,8.63
2024-01-05T16:02:37.960Z,10.23
2024-01-05T16:05:25.774Z,9.57
2024-01-05T16:08:15.017Z,9.70
2024-01-05T16:11:02.991Z,10.13
2024-01-05T16:13:51.773Z,9.75
2024-01-05T16:16:41.359Z,9.93
2024-01-05T16:19:30.076Z,9.57
2024-01-05T16:22:18.453Z,10.77
2024-01-05T16:25:06.857Z,10.50
2024-01-05T16:27:54.698Z,10.10
2024-01-05T16:30:44.354Z,9.13
2024-01-05T16:33:32.602Z,8.52
2024-01-05T16:36:22.220Z,8.70
2024-01-05T16:39:11.029Z,9.77
2024-01-05T16:41:59.454Z,9.52
2024-01-05T16:44:48.160Z,10.23
2024-01-05T16:47:37.477Z,9.88
2024-01-05T16:50:26.392Z,8.30
2024-01-05T16:53:16.160Z,7.90
2024-01-05T16:56:04.238Z,8.18
2024-01-05T16:58:57.491Z,9.73
2024-01-05T17:01:45.939Z,7.70
2024-01-05T17:04:34.118Z,8.82
2024-01-05T17:07:21.949Z,7.67
2024-01-05T17:10:11.372Z,8.13
2024-01-05T17:12:59.253Z,7.93
2024-01-05T17:15:46.985Z,7.47
2024-01-05T17:18:37.042Z,7.82
2024-01-05T17:21:25.176Z,7.38
2024-01-05T17:24:13.138Z,7.73
2024-01-05T17:27:01.061Z,6.90
2024-01-05T17:29:49.543Z,6.97
2024-01-05T17:32:37.440Z,7.00
2024-01-05T17:35:26.206Z,6.85
2024-01-05T17:38:15.627Z,7.57
2024-01-05T17:41:04.590Z,5.60
2024-01-05T17:43:52.246Z,6.90
2024-01-05T17:46:40.182Z,6.47
2024-01-05T17:49:28.005Z,7.38
2024-01-05T17:52:18.219Z,9.85
2024-01-05T17:55:06.254Z,8.35
2024-01-05T17:57:53.851Z,13.45
2024-01-05T18:00:23.014Z,12.45
2024-01-05T18:02:51.427Z,10.15
2024-01-05T18:05:27.155Z,10.35
2024-01-05T18:07:57.554Z,9.98
2024-01-05T18:10:26.553Z,8.88
2024-01-05T18:12:56.687Z,9.18
2024-01-05T18:15:25.336Z,8.88
2024-01-05T18:17:54.206Z,9.90
2024-01-05T18:20:22.679Z,7.88
2024-01-05T18:22:50.639Z,8.77
2024-01-05T18:25:20.013Z,7.43
2024-01-05T18:27:49.268Z,9.63
2024-01-05T18:30:18.570Z,10.15
2024-01-05T18:32:46.764Z,7.80
2024-01-05T18:35:15.043Z,8.73
2024-01-05T18:37:43.730Z,8.07
2024-01-05T18:40:12.361Z,10.10
2024-01-05T18:42:43.276Z,9.45
2024-01-05T18:45:11.267Z,9.93
2024-01-05T18:50:08.398Z,9.05
2024-01-05T18:52:37.089Z,8.05
2024-01-05T18:55:05.852Z,9.50
2024-01-05T18:57:35.614Z,8.60
2024-01-05T19:00:03.737Z,9.18
2024-01-05T19:02:34.038Z,7.63
2024-01-05T19:05:02.203Z,8.00
2024-01-05T19:07:31.664Z,8.50
2024-01-05T19:10:01.699Z,8.95
2024-01-05T19:12:31.335Z,9.05
2024-01-05T19:17:27.452Z,7.68
2024-01-05T19:19:55.522Z,8.65
2024-01-05T19:22:23.390Z,8.45
2024-01-05T19:24:52.427Z,9.05
2024-01-05T19:27:21.776Z,6.93
2024-01-05T19:29:49.971Z,7.05
2024-01-05T19:32:18.523Z,8.30
2024-01-05T19:34:47.750Z,8.15
2024-01-05T19:37:15.637Z,8.60
2024-01-05T19:39:48.382Z,8.00
2024-01-05T19:42:20.138Z,7.05
2024-01-05T19:44:48.899Z,8.02
2024-01-05T19:47:18.649Z,8.80
2024-01-05T19:49:51.441Z,8.43
2024-01-05T19:52:19.871Z,7.95
2024-01-05T19:54:49.283Z,8.35
2024-01-05T19:57:18.384Z,7.65
2024-01-05T20:00:09.406Z,8.43
2024-01-05T20:02:37.436Z,7.82
2024-01-05T20:05:05.906Z,10.70
2024-01-05T20:07:36.023Z,10.07
2024-01-05T20:10:04.686Z,9.90
2024-01-05T20:12:36.716Z,9.70
2024-01-05T20:15:06.301Z,10.25
2024-01-05T20:20:23.653Z,10.55
2024-01-05T20:22:52.103Z,10.13
2024-01-05T20:25:39.834Z,9.55
2024-01-05T20:28:08.283Z,9.10
2024-01-05T20:30:36.372Z,9.20
2024-01-05T20:33:05.027Z,9.55
2024-01-05T20:35:32.834Z,9.07
2024-01-05T20:40:29.001Z,8.67
2024-01-05T20:42:59.699Z,7.32
2024-01-05T20:45:27.542Z,7.82
2024-01-05T20:47:55.613Z,8.55
2024-01-05T20:50:23.925Z,8.85
2024-01-05T20:52:52.496Z,8.20
2024-01-05T20:55:20.692Z,10.95
2024-01-05T20:57:50.531Z,9.00
2024-01-05T21:00:19.336Z,9.45
2024-01-05T21:02:47.341Z,8.73
2024-01-05T21:05:16.965Z,10.30
2024-01-05T21:07:44.810Z,9.45
2024-01-05T21:10:12.996Z,9.18
2024-01-05T21:12:41.707Z,8.63
2024-01-05T21:15:10.171Z,9.55
2024-01-05T21:17:38.606Z,9.57
2024-01-05T21:20:07.948Z,9.43
2024-01-05T21:22:36.912Z,9.73
2024-01-05T21:25:06.959Z,9.45
2024-01-05T21:27:34.636Z,11.45
2024-01-05T21:32:32.644Z,12.73
2024-01-05T21:35:00.390Z,33.10
2024-01-05T21:39:56.692Z,16.05
2024-01-05T21:42:24.866Z,13.75
2024-01-05T21:44:54.242Z,15.65
2024-01-05T21:47:22.657Z,11.57
2024-01-05T21:49:51.556Z,10.00
2024-01-05T21:52:19.780Z,12.35
2024-01-05T21:54:47.652Z,12.52
2024-01-05T21:57:16.784Z,13.48
2024-01-05T21:59:45.944Z,13.88
2024-01-05T22:02:13.957Z,12.93
2024-01-05T22:04:42.083Z,12.80
2024-01-05T22:07:10.549Z,11.90
2024-01-05T22:09:38.604Z,11.40
2024-01-05T22:12:08.891Z,13.10
2024-01-05T22:14:36.953Z,12.93
2024-01-05T22:17:04.655Z,11.63
2024-01-05T22:19:32.579Z,10.93
2024-01-05T22:22:01.083Z,10.10
2024-01-05T22:24:30.919Z,11.07
2024-01-05T22:27:06.498Z,10.13
2024-01-05T22:29:37.234Z,11.15
2024-01-05T22:32:06.573Z,9.38
2024-01-05T22:34:36.284Z,8.75
2024-01-05T22:37:07.529Z,9.00
2024-01-05T22:39:38.792Z,8.60
2024-01-05T22:42:06.693Z,7.47
2024-01-05T22:47:06.085Z,7.45
2024-01-05T22:49:34.194Z,7.07
2024-01-05T22:52:02.061Z,7.10
2024-01-05T22:54:32.046Z,8.82
2024-01-05T22:57:00.056Z,7.60
2024-01-05T23:01:56.467Z,7.85
2024-01-05T23:04:26.029Z,7.47
2024-01-05T23:06:58.225Z,6.03
2024-01-05T23:09:26.514Z,7.35
2024-01-05T23:11:54.390Z,7.22
2024-01-05T23:16:51.272Z,6.22
2024-01-05T23:19:19.952Z,5.75
2024-01-05T23:21:48.353Z,6.22
2024-01-05T23:24:16.392Z,6.10
2024-01-05T23:26:45.626Z,6.50
2024-01-05T23:29:14.104Z,6.47
2024-01-05T23:31:42.404Z,6.93
2024-01-05T23:34:16.354Z,5.65
2024-01-05T23:36:45.712Z,6.22
2024-01-05T23:39:15.571Z,6.38
2024-01-05T23:41:44.477Z,6.60
2024-01-05T23:44:13.646Z,7.25
2024-01-05T23:46:41.324Z,7.28
2024-01-05T23:49:09.833Z,6.40
2024-01-05T23:51:38.444Z,6.22
2024-01-05T23:54:06.355Z,7.05
2024-01-05T23:56:35.246Z,7.40
2024-01-05T23:59:05.275Z,7.35
